»·PEaware :: N2442P KPSP-KIFP

N2442P :: KPSP-KIFP

FLIGHT INFORMATION

Flight Status: Arrived
Operator: Privately registered:
United States
More flights under this callsign
Pilot: Ken Q. (14290)
Aircraft: MOONEY M-20K/M ENCORE BRAVO
(M20T)
More flights by this aircraft type
Origin: KPSP Palm Springs Intl
United States
Destination: KIFP Laughlin/Bullhead Intl
United States
More flights between these airports :: More routes between these airports
Route: TNP JOTNU GFS
File this flight plan on PilotEdge
Remarks: X
Altitude:
(Current/Filed)
7,500ft
Speed:
(Current/Filed)
175kts
Departed: 08-Jan-21 01:49 PM
Arrived: 08-Jan-21 02:45 PM
Distance/Time
Traveled:
125nm/0:56
Distance/Time
To Go:
Arrived

Flight Plot

Page will automatically refresh every two minutes.

Flight plan parsing failed; only flown route is shown


Map Options




Map Legend


Flown Route
Filed Route
Departure Airport
Arrival Airport
Navaid (VOR, NDB)
Fix

Horizontal Profiles

Position Reports

Time Latitude Longitude Heading Altitude Ground
Speed
08-Jan-21 13:16 33.826403 -116.509344 270 480ft 0kts
08-Jan-21 13:17 33.826403 -116.509344 270 480ft 0kts
08-Jan-21 13:18 33.826403 -116.509344 270 480ft 0kts
08-Jan-21 13:19 33.826403 -116.509344 270 480ft 0kts
08-Jan-21 13:20 33.826403 -116.509344 270 480ft 0kts
08-Jan-21 13:21 33.826403 -116.509344 270 480ft 0kts
08-Jan-21 13:22 33.826403 -116.509344 270 480ft 0kts
08-Jan-21 13:23 33.826403 -116.509344 270 480ft 0kts
08-Jan-21 13:24 33.826403 -116.509344 270 480ft 0kts
08-Jan-21 13:25 33.826403 -116.509344 270 480ft 0kts
08-Jan-21 13:26 33.826403 -116.509344 270 480ft 0kts
08-Jan-21 13:27 33.826403 -116.509344 270 480ft 0kts
08-Jan-21 13:28 33.826403 -116.509344 270 480ft 0kts
08-Jan-21 13:29 33.826403 -116.509344 270 480ft 0kts
08-Jan-21 13:30 33.826403 -116.509344 270 480ft 0kts
08-Jan-21 13:31 33.826403 -116.509344 270 480ft 0kts
08-Jan-21 13:32 33.826403 -116.509344 270 480ft 0kts
08-Jan-21 13:33 33.826403 -116.509344 270 480ft 0kts
08-Jan-21 13:34 33.826403 -116.509344 270 480ft 0kts
08-Jan-21 13:35 33.826403 -116.509345 270 480ft 0kts
08-Jan-21 13:36 33.826403 -116.509346 270 480ft 0kts
08-Jan-21 13:37 33.826403 -116.509347 270 480ft 0kts
08-Jan-21 13:38 33.826403 -116.509348 270 480ft 0kts
08-Jan-21 13:39 33.826403 -116.509349 270 480ft 0kts
08-Jan-21 13:40 33.826403 -116.509350 270 480ft 0kts
08-Jan-21 13:41 33.826403 -116.509351 270 480ft 0kts
08-Jan-21 13:42 33.825552 -116.508950 99 480ft 10kts
08-Jan-21 13:43 33.824553 -116.505151 144 480ft 8kts
08-Jan-21 13:44 33.822480 -116.503307 145 480ft 12kts
08-Jan-21 13:45 33.819257 -116.500467 142 480ft 15kts
08-Jan-21 13:46 33.818269 -116.499542 135 480ft 0kts
08-Jan-21 13:47 33.818533 -116.498943 86 480ft 0kts
08-Jan-21 13:48 33.821031 -116.499994 322 480ft 54kts
08-Jan-21 13:49 33.840631 -116.519124 324 1025ft 106kts
08-Jan-21 13:50 33.866620 -116.541988 321 1791ft 120kts
08-Jan-21 13:51 33.892019 -116.532228 67 2464ft 131kts
08-Jan-21 13:52 33.906304 -116.491324 67 3236ft 129kts
08-Jan-21 13:53 33.917789 -116.451959 67 4222ft 120kts
08-Jan-21 13:54 33.927963 -116.414885 67 5217ft 118kts
08-Jan-21 13:55 33.939487 -116.372939 68 5737ft 153kts
08-Jan-21 13:56 33.952770 -116.325600 67 6582ft 144kts
08-Jan-21 13:57 33.965182 -116.279963 67 7318ft 145kts
08-Jan-21 13:58 33.979040 -116.230245 67 7550ft 170kts
08-Jan-21 13:59 33.993253 -116.174729 70 7553ft 174kts
08-Jan-21 14:00 34.005770 -116.117483 73 7570ft 177kts
08-Jan-21 14:01 34.016592 -116.059766 73 7574ft 176kts
08-Jan-21 14:02 34.027489 -116.001701 73 7573ft 177kts
08-Jan-21 14:03 34.041859 -115.945033 66 7575ft 176kts
08-Jan-21 14:04 34.058962 -115.889052 65 7575ft 177kts
08-Jan-21 14:05 34.076492 -115.832979 65 7574ft 177kts
08-Jan-21 14:06 34.096591 -115.778486 48 7576ft 175kts
08-Jan-21 14:07 34.129395 -115.735530 41 7574ft 172kts
08-Jan-21 14:08 34.164757 -115.695319 38 7573ft 173kts
08-Jan-21 14:09 34.201381 -115.657019 37 7574ft 175kts
08-Jan-21 14:10 34.239275 -115.618332 35 7572ft 178kts
08-Jan-21 14:11 34.278759 -115.581500 34 7570ft 178kts
08-Jan-21 14:12 34.318320 -115.544644 34 7586ft 178kts
08-Jan-21 14:13 34.362516 -115.519970 18 7585ft 174kts
08-Jan-21 14:14 34.407974 -115.498457 18 7582ft 175kts
08-Jan-21 14:15 34.454164 -115.476923 18 7549ft 177kts
08-Jan-21 14:16 34.500598 -115.455438 18 7546ft 177kts
08-Jan-21 14:17 34.546581 -115.434144 18 7545ft 176kts
08-Jan-21 14:19 34.592178 -115.412990 18 7542ft 175kts
08-Jan-21 14:20 34.638024 -115.391751 18 7538ft 176kts
08-Jan-21 14:21 34.684262 -115.370615 18 7536ft 176kts
08-Jan-21 14:22 34.730734 -115.349575 16 7532ft 177kts
08-Jan-21 14:23 34.777097 -115.329853 16 7531ft 175kts
08-Jan-21 14:24 34.823478 -115.310000 16 7527ft 176kts
08-Jan-21 14:25 34.870083 -115.290045 16 7525ft 176kts
08-Jan-21 14:26 34.916639 -115.270081 16 7523ft 176kts
08-Jan-21 14:27 34.963387 -115.250201 16 7523ft 177kts
08-Jan-21 14:28 35.010346 -115.230323 16 7520ft 177kts
08-Jan-21 14:29 35.056744 -115.210709 16 7522ft 175kts
08-Jan-21 14:30 35.102292 -115.189111 42 7514ft 178kts
08-Jan-21 14:30 35.123772 -115.145268 60 7510ft 181kts
08-Jan-21 14:32 35.135141 -115.074423 80 7251ft 188kts
08-Jan-21 14:33 35.142190 -115.009942 80 6755ft 192kts
08-Jan-21 14:33 35.146806 -114.958213 82 6319ft 170kts
08-Jan-21 14:34 35.151241 -114.904065 82 5801ft 153kts
08-Jan-21 14:36 35.155614 -114.846000 82 5499ft 134kts
08-Jan-21 14:37 35.152711 -114.800012 102 4977ft 142kts
08-Jan-21 14:37 35.143706 -114.760884 104 4426ft 143kts
08-Jan-21 14:38 35.136174 -114.713726 95 3760ft 140kts
08-Jan-21 14:39 35.136495 -114.666474 87 3087ft 138kts
08-Jan-21 14:40 35.136303 -114.619886 88 2626ft 132kts
08-Jan-21 14:41 35.126375 -114.580939 87 2055ft 96kts
08-Jan-21 14:42 35.132699 -114.557734 0 1270ft 73kts
08-Jan-21 14:43 35.151093 -114.558886 344 654ft 50kts
08-Jan-21 14:44 35.155885 -114.558725 86 644ft 3kts
08-Jan-21 14:45 35.157164 -114.558219 1 644ft 10kts
08-Jan-21 14:46 35.158213 -114.558301 353 644ft 14kts
08-Jan-21 14:47 35.160534 -114.556842 357 644ft 12kts
08-Jan-21 14:48 35.161230 -114.556662 183 644ft 0kts
08-Jan-21 14:49 35.161341 -114.556655 180 644ft 0kts
08-Jan-21 14:50 35.161341 -114.556655 180 644ft 0kts

Navigation Log

Ident Type
Flight plan parsing failed, navigation log unavailable